sensor_id;sensor_type;location;lat;lon;timestamp;temperature;humidity
32476;DHT22;18929;48.008;10.882;2022-08-11T00:01:13;21.80;74.20
32476;DHT22;18929;48.008;10.882;2022-08-11T00:03:46;21.80;74.50
32476;DHT22;18929;48.008;10.882;2022-08-11T00:06:22;21.70;74.60
32476;DHT22;18929;48.008;10.882;2022-08-11T00:08:51;21.70;74.90
32476;DHT22;18929;48.008;10.882;2022-08-11T00:11:19;21.70;74.90
32476;DHT22;18929;48.008;10.882;2022-08-11T00:13:49;21.60;75.10
32476;DHT22;18929;48.008;10.882;2022-08-11T00:16:17;21.60;75.10
32476;DHT22;18929;48.008;10.882;2022-08-11T00:18:47;21.60;75.20
32476;DHT22;18929;48.008;10.882;2022-08-11T00:21:15;21.60;75.30
32476;DHT22;18929;48.008;10.882;2022-08-11T00:23:45;21.50;75.40
32476;DHT22;18929;48.008;10.882;2022-08-11T00:26:13;21.40;75.60
32476;DHT22;18929;48.008;10.882;2022-08-11T00:28:41;21.40;75.80
32476;DHT22;18929;48.008;10.882;2022-08-11T00:31:19;21.40;76.00
32476;DHT22;18929;48.008;10.882;2022-08-11T00:33:48;21.30;76.10
32476;DHT22;18929;48.008;10.882;2022-08-11T00:36:18;21.30;76.10
32476;DHT22;18929;48.008;10.882;2022-08-11T00:38:49;21.20;76.50
32476;DHT22;18929;48.008;10.882;2022-08-11T00:41:28;21.20;77.10
32476;DHT22;18929;48.008;10.882;2022-08-11T00:44:24;21.20;76.30
32476;DHT22;18929;48.008;10.882;2022-08-11T00:47:00;20.90;76.80
32476;DHT22;18929;48.008;10.882;2022-08-11T00:50:00;21.00;76.60
32476;DHT22;18929;48.008;10.882;2022-08-11T00:52:46;20.90;76.70
32476;DHT22;18929;48.008;10.882;2022-08-11T00:58:43;21.00;76.60
32476;DHT22;18929;48.008;10.882;2022-08-11T01:01:20;21.00;76.50
32476;DHT22;18929;48.008;10.882;2022-08-11T01:04:19;20.90;76.70
32476;DHT22;18929;48.008;10.882;2022-08-11T01:10:01;20.80;77.10
32476;DHT22;18929;48.008;10.882;2022-08-11T01:12:43;20.70;77.30
32476;DHT22;18929;48.008;10.882;2022-08-11T01:15:34;20.80;77.40
32476;DHT22;18929;48.008;10.882;2022-08-11T01:46:25;20.40;78.20
32476;DHT22;18929;48.008;10.882;2022-08-11T01:49:02;20.30;79.20
32476;DHT22;18929;48.008;10.882;2022-08-11T01:51:44;20.30;78.30
32476;DHT22;18929;48.008;10.882;2022-08-11T01:54:19;20.30;78.40
32476;DHT22;18929;48.008;10.882;2022-08-11T01:57:01;20.20;78.60
32476;DHT22;18929;48.008;10.882;2022-08-11T01:59:35;20.10;78.80
32476;DHT22;18929;48.008;10.882;2022-08-11T02:02:26;20.10;79.00
32476;DHT22;18929;48.008;10.882;2022-08-11T02:05:25;20.00;79.20
32476;DHT22;18929;48.008;10.882;2022-08-11T02:07:59;20.00;80.30
32476;DHT22;18929;48.008;10.882;2022-08-11T02:10:32;20.00;79.50
32476;DHT22;18929;48.008;10.882;2022-08-11T02:13:33;20.00;79.50
32476;DHT22;18929;48.008;10.882;2022-08-11T02:16:12;19.90;79.70
32476;DHT22;18929;48.008;10.882;2022-08-11T02:18:59;19.80;79.80
32476;DHT22;18929;48.008;10.882;2022-08-11T02:21:51;19.80;79.90
32476;DHT22;18929;48.008;10.882;2022-08-11T02:24:44;19.80;80.30
32476;DHT22;18929;48.008;10.882;2022-08-11T02:27:17;19.80;80.30
32476;DHT22;18929;48.008;10.882;2022-08-11T02:29:50;19.80;80.40
32476;DHT22;18929;48.008;10.882;2022-08-11T02:32:30;19.70;80.30
32476;DHT22;18929;48.008;10.882;2022-08-11T02:35:21;19.60;80.60
32476;DHT22;18929;48.008;10.882;2022-08-11T02:38:04;19.60;81.90
32476;DHT22;18929;48.008;10.882;2022-08-11T02:40:37;19.50;81.00
32476;DHT22;18929;48.008;10.882;2022-08-11T02:43:21;19.50;81.90
32476;DHT22;18929;48.008;10.882;2022-08-11T02:46:15;19.50;81.10
32476;DHT22;18929;48.008;10.882;2022-08-11T02:48:52;19.50;81.10
32476;DHT22;18929;48.008;10.882;2022-08-11T02:51:49;19.40;81.00
32476;DHT22;18929;48.008;10.882;2022-08-11T02:54:26;19.40;81.10
32476;DHT22;18929;48.008;10.882;2022-08-11T02:57:00;19.40;81.20
32476;DHT22;18929;48.008;10.882;2022-08-11T02:59:40;19.30;81.40
32476;DHT22;18929;48.008;10.882;2022-08-11T03:02:49;19.30;81.50
32476;DHT22;18929;48.008;10.882;2022-08-11T03:05:40;19.20;81.70
32476;DHT22;18929;48.008;10.882;2022-08-11T03:08:16;19.20;81.60
32476;DHT22;18929;48.008;10.882;2022-08-11T03:10:53;19.20;81.70
32476;DHT22;18929;48.008;10.882;2022-08-11T03:13:45;19.10;82.50
32476;DHT22;18929;48.008;10.882;2022-08-11T03:16:40;19.10;81.80
32476;DHT22;18929;48.008;10.882;2022-08-11T03:19:15;19.00;82.00
32476;DHT22;18929;48.008;10.882;2022-08-11T03:21:50;19.00;82.00
32476;DHT22;18929;48.008;10.882;2022-08-11T03:24:27;19.10;82.00
32476;DHT22;18929;48.008;10.882;2022-08-11T03:27:03;19.00;82.00
32476;DHT22;18929;48.008;10.882;2022-08-11T03:29:36;19.00;82.30
32476;DHT22;18929;48.008;10.882;2022-08-11T03:32:10;18.90;82.30
32476;DHT22;18929;48.008;10.882;2022-08-11T03:34:47;19.00;82.30
32476;DHT22;18929;48.008;10.882;2022-08-11T03:37:30;18.90;82.40
32476;DHT22;18929;48.008;10.882;2022-08-11T03:45:19;18.80;82.70
32476;DHT22;18929;48.008;10.882;2022-08-11T03:47:59;18.70;83.10
32476;DHT22;18929;48.008;10.882;2022-08-11T03:50:46;18.70;83.40
32476;DHT22;18929;48.008;10.882;2022-08-11T03:53:17;18.70;83.30
32476;DHT22;18929;48.008;10.882;2022-08-11T03:59:21;18.60;83.60
32476;DHT22;18929;48.008;10.882;2022-08-11T04:02:13;18.50;83.60
32476;DHT22;18929;48.008;10.882;2022-08-11T04:11:19;18.50;84.00
32476;DHT22;18929;48.008;10.882;2022-08-11T04:14:26;18.50;84.10
32476;DHT22;18929;48.008;10.882;2022-08-11T04:17:43;18.50;84.10
32476;DHT22;18929;48.008;10.882;2022-08-11T04:20:47;18.40;84.40
32476;DHT22;18929;48.008;10.882;2022-08-11T04:23:48;18.40;84.40
32476;DHT22;18929;48.008;10.882;2022-08-11T04:26:51;18.40;85.30
32476;DHT22;18929;48.008;10.882;2022-08-11T04:29:39;18.30;84.50
32476;DHT22;18929;48.008;10.882;2022-08-11T04:32:24;18.30;84.80
32476;DHT22;18929;48.008;10.882;2022-08-11T04:35:21;18.30;85.00
32476;DHT22;18929;48.008;10.882;2022-08-11T04:38:13;18.20;85.20
32476;DHT22;18929;48.008;10.882;2022-08-11T04:44:26;18.20;85.60
32476;DHT22;18929;48.008;10.882;2022-08-11T04:47:21;18.20;85.80
32476;DHT22;18929;48.008;10.882;2022-08-11T04:50:29;18.10;85.90
32476;DHT22;18929;48.008;10.882;2022-08-11T04:53:36;18.10;86.00
32476;DHT22;18929;48.008;10.882;2022-08-11T04:56:25;18.10;86.10
32476;DHT22;18929;48.008;10.882;2022-08-11T04:59:36;18.10;86.30
32476;DHT22;18929;48.008;10.882;2022-08-11T05:03:02;18.10;86.70
32476;DHT22;18929;48.008;10.882;2022-08-11T05:06:11;18.10;86.80
32476;DHT22;18929;48.008;10.882;2022-08-11T05:09:15;18.00;86.90
32476;DHT22;18929;48.008;10.882;2022-08-11T05:12:05;18.00;86.90
32476;DHT22;18929;48.008;10.882;2022-08-11T05:14:40;18.00;87.00
32476;DHT22;18929;48.008;10.882;2022-08-11T05:17:47;18.10;86.80
32476;DHT22;18929;48.008;10.882;2022-08-11T05:20:49;18.10;87.00
32476;DHT22;18929;48.008;10.882;2022-08-11T05:23:38;18.10;86.90
32476;DHT22;18929;48.008;10.882;2022-08-11T05:26:24;18.00;87.10
32476;DHT22;18929;48.008;10.882;2022-08-11T05:29:30;17.90;87.60
32476;DHT22;18929;48.008;10.882;2022-08-11T05:32:21;18.00;87.60
32476;DHT22;18929;48.008;10.882;2022-08-11T05:35:07;18.10;87.30
32476;DHT22;18929;48.008;10.882;2022-08-11T05:37:41;18.20;87.10
32476;DHT22;18929;48.008;10.882;2022-08-11T05:40:23;18.30;87.00
32476;DHT22;18929;48.008;10.882;2022-08-11T05:43:13;18.40;87.00
32476;DHT22;18929;48.008;10.882;2022-08-11T05:45:59;18.40;87.30
32476;DHT22;18929;48.008;10.882;2022-08-11T05:48:46;18.50;87.00
32476;DHT22;18929;48.008;10.882;2022-08-11T05:51:33;18.50;87.40
32476;DHT22;18929;48.008;10.882;2022-08-11T05:54:18;18.50;86.80
32476;DHT22;18929;48.008;10.882;2022-08-11T05:57:03;17.50;91.20
32476;DHT22;18929;48.008;10.882;2022-08-11T05:59:31;18.10;91.70
32476;DHT22;18929;48.008;10.882;2022-08-11T06:02:01;19.30;87.00
32476;DHT22;18929;48.008;10.882;2022-08-11T06:04:30;18.90;89.50
32476;DHT22;18929;48.008;10.882;2022-08-11T06:07:00;19.50;86.90
32476;DHT22;18929;48.008;10.882;2022-08-11T06:09:30;19.10;87.70
32476;DHT22;18929;48.008;10.882;2022-08-11T06:12:00;19.70;89.60
32476;DHT22;18929;48.008;10.882;2022-08-11T06:14:29;20.00;89.20
32476;DHT22;18929;48.008;10.882;2022-08-11T06:16:58;20.80;85.40
32476;DHT22;18929;48.008;10.882;2022-08-11T06:23:11;19.40;85.50
32476;DHT22;18929;48.008;10.882;2022-08-11T06:25:40;18.40;91.00
32476;DHT22;18929;48.008;10.882;2022-08-11T06:28:07;18.10;91.10
32476;DHT22;18929;48.008;10.882;2022-08-11T06:30:36;17.90;91.40
32476;DHT22;18929;48.008;10.882;2022-08-11T06:36:39;18.10;90.10
32476;DHT22;18929;48.008;10.882;2022-08-11T06:39:19;17.80;92.80
32476;DHT22;18929;48.008;10.882;2022-08-11T06:41:52;18.00;91.00
32476;DHT22;18929;48.008;10.882;2022-08-11T06:44:47;18.10;91.50
32476;DHT22;18929;48.008;10.882;2022-08-11T06:47:18;18.10;91.80
32476;DHT22;18929;48.008;10.882;2022-08-11T06:49:46;18.10;92.10
32476;DHT22;18929;48.008;10.882;2022-08-11T06:52:33;18.00;90.80
32476;DHT22;18929;48.008;10.882;2022-08-11T06:55:07;18.00;90.70
32476;DHT22;18929;48.008;10.882;2022-08-11T06:57:38;17.20;93.90
32476;DHT22;18929;48.008;10.882;2022-08-11T07:00:33;17.50;94.10
32476;DHT22;18929;48.008;10.882;2022-08-11T07:03:06;17.90;92.10
32476;DHT22;18929;48.008;10.882;2022-08-11T07:05:40;17.50;93.20
32476;DHT22;18929;48.008;10.882;2022-08-11T07:08:31;17.80;91.90
32476;DHT22;18929;48.008;10.882;2022-08-11T07:11:54;17.60;94.10
32476;DHT22;18929;48.008;10.882;2022-08-11T07:14:49;18.10;93.10
32476;DHT22;18929;48.008;10.882;2022-08-11T07:17:40;17.80;93.40
32476;DHT22;18929;48.008;10.882;2022-08-11T07:20:16;17.80;93.90
32476;DHT22;18929;48.008;10.882;2022-08-11T07:23:01;17.70;93.60
32476;DHT22;18929;48.008;10.882;2022-08-11T07:25:50;17.80;94.00
32476;DHT22;18929;48.008;10.882;2022-08-11T07:28:41;18.40;94.00
32476;DHT22;18929;48.008;10.882;2022-08-11T07:31:29;18.60;94.10
32476;DHT22;18929;48.008;10.882;2022-08-11T07:34:09;18.20;93.80
32476;DHT22;18929;48.008;10.882;2022-08-11T07:36:43;18.20;94.10
32476;DHT22;18929;48.008;10.882;2022-08-11T07:39:15;18.20;93.80
32476;DHT22;18929;48.008;10.882;2022-08-11T07:41:43;18.10;92.10
32476;DHT22;18929;48.008;10.882;2022-08-11T07:44:28;18.30;92.60
32476;DHT22;18929;48.008;10.882;2022-08-11T07:46:56;18.30;93.60
32476;DHT22;18929;48.008;10.882;2022-08-11T07:49:44;18.60;91.90
32476;DHT22;18929;48.008;10.882;2022-08-11T07:52:33;18.50;92.50
32476;DHT22;18929;48.008;10.882;2022-08-11T07:55:05;18.50;94.00
32476;DHT22;18929;48.008;10.882;2022-08-11T07:57:32;18.50;93.90
32476;DHT22;18929;48.008;10.882;2022-08-11T08:00:19;18.70;93.20
32476;DHT22;18929;48.008;10.882;2022-08-11T08:03:04;18.90;93.10
32476;DHT22;18929;48.008;10.882;2022-08-11T08:05:50;19.00;91.90
32476;DHT22;18929;48.008;10.882;2022-08-11T08:08:35;19.20;93.20
32476;DHT22;18929;48.008;10.882;2022-08-11T08:11:22;19.30;92.00
32476;DHT22;18929;48.008;10.882;2022-08-11T08:14:07;19.10;91.50
32476;DHT22;18929;48.008;10.882;2022-08-11T08:16:55;18.90;92.50
32476;DHT22;18929;48.008;10.882;2022-08-11T08:19:42;19.00;92.10
32476;DHT22;18929;48.008;10.882;2022-08-11T08:22:14;19.00;92.60
32476;DHT22;18929;48.008;10.882;2022-08-11T08:24:42;19.10;93.70
32476;DHT22;18929;48.008;10.882;2022-08-11T08:27:12;19.50;94.00
32476;DHT22;18929;48.008;10.882;2022-08-11T08:29:40;19.30;92.60
32476;DHT22;18929;48.008;10.882;2022-08-11T08:32:28;19.40;93.00
32476;DHT22;18929;48.008;10.882;2022-08-11T08:34:57;19.50;93.30
32476;DHT22;18929;48.008;10.882;2022-08-11T08:37:26;19.30;93.20
32476;DHT22;18929;48.008;10.882;2022-08-11T08:39:53;19.20;92.00
32476;DHT22;18929;48.008;10.882;2022-08-11T08:42:23;19.50;93.20
32476;DHT22;18929;48.008;10.882;2022-08-11T08:44:56;19.70;93.10
32476;DHT22;18929;48.008;10.882;2022-08-11T08:47:27;19.90;93.20
32476;DHT22;18929;48.008;10.882;2022-08-11T08:50:01;19.80;91.70
32476;DHT22;18929;48.008;10.882;2022-08-11T08:52:34;19.70;92.80
32476;DHT22;18929;48.008;10.882;2022-08-11T08:55:06;19.90;92.60
32476;DHT22;18929;48.008;10.882;2022-08-11T08:57:35;20.00;92.20
32476;DHT22;18929;48.008;10.882;2022-08-11T09:00:04;19.70;92.40
32476;DHT22;18929;48.008;10.882;2022-08-11T09:02:38;20.10;92.60
32476;DHT22;18929;48.008;10.882;2022-08-11T09:05:06;20.00;91.80
32476;DHT22;18929;48.008;10.882;2022-08-11T09:07:34;19.90;92.50
32476;DHT22;18929;48.008;10.882;2022-08-11T09:10:03;20.30;93.10
32476;DHT22;18929;48.008;10.882;2022-08-11T09:12:31;20.40;92.00
32476;DHT22;18929;48.008;10.882;2022-08-11T09:15:03;20.30;92.20
32476;DHT22;18929;48.008;10.882;2022-08-11T09:17:40;20.80;92.60
32476;DHT22;18929;48.008;10.882;2022-08-11T09:20:12;20.20;91.70
32476;DHT22;18929;48.008;10.882;2022-08-11T09:22:42;20.30;91.20
32476;DHT22;18929;48.008;10.882;2022-08-11T09:25:31;20.80;92.10
32476;DHT22;18929;48.008;10.882;2022-08-11T09:28:17;20.20;91.80
32476;DHT22;18929;48.008;10.882;2022-08-11T09:30:46;20.60;92.00
32476;DHT22;18929;48.008;10.882;2022-08-11T09:33:21;20.90;91.30
32476;DHT22;18929;48.008;10.882;2022-08-11T09:35:50;20.90;90.80
32476;DHT22;18929;48.008;10.882;2022-08-11T09:38:19;21.20;90.90
32476;DHT22;18929;48.008;10.882;2022-08-11T09:41:08;21.00;90.70
32476;DHT22;18929;48.008;10.882;2022-08-11T09:43:39;20.80;91.70
32476;DHT22;18929;48.008;10.882;2022-08-11T09:46:27;21.00;90.90
32476;DHT22;18929;48.008;10.882;2022-08-11T09:48:58;20.90;91.70
32476;DHT22;18929;48.008;10.882;2022-08-11T09:51:30;21.00;90.10
32476;DHT22;18929;48.008;10.882;2022-08-11T09:53:59;21.50;90.10
32476;DHT22;18929;48.008;10.882;2022-08-11T10:04:02;21.30;90.40
32476;DHT22;18929;48.008;10.882;2022-08-11T10:06:58;21.30;91.00
32476;DHT22;18929;48.008;10.882;2022-08-11T10:09:32;21.60;90.20
32476;DHT22;18929;48.008;10.882;2022-08-11T10:12:03;21.40;89.60
32476;DHT22;18929;48.008;10.882;2022-08-11T10:14:33;22.00;89.20
32476;DHT22;18929;48.008;10.882;2022-08-11T10:17:21;21.80;88.90
32476;DHT22;18929;48.008;10.882;2022-08-11T10:19:51;21.90;89.20
32476;DHT22;18929;48.008;10.882;2022-08-11T10:22:22;21.70;90.30
32476;DHT22;18929;48.008;10.882;2022-08-11T10:25:08;21.90;88.10
32476;DHT22;18929;48.008;10.882;2022-08-11T10:27:53;21.60;90.20
32476;DHT22;18929;48.008;10.882;2022-08-11T10:30:24;21.60;89.20
32476;DHT22;18929;48.008;10.882;2022-08-11T10:33:10;21.90;88.30
32476;DHT22;18929;48.008;10.882;2022-08-11T10:35:57;22.00;88.60
32476;DHT22;18929;48.008;10.882;2022-08-11T10:38:25;22.00;89.10
32476;DHT22;18929;48.008;10.882;2022-08-11T10:40:54;22.10;86.60
32476;DHT22;18929;48.008;10.882;2022-08-11T10:43:37;22.20;86.90
32476;DHT22;18929;48.008;10.882;2022-08-11T10:46:07;22.10;86.00
32476;DHT22;18929;48.008;10.882;2022-08-11T10:48:54;21.30;90.00
32476;DHT22;18929;48.008;10.882;2022-08-11T10:51:24;21.70;89.00
32476;DHT22;18929;48.008;10.882;2022-08-11T10:54:10;21.70;88.50
32476;DHT22;18929;48.008;10.882;2022-08-11T10:56:55;21.10;90.10
32476;DHT22;18929;48.008;10.882;2022-08-11T10:59:41;20.90;90.60
32476;DHT22;18929;48.008;10.882;2022-08-11T11:02:11;21.40;90.20
32476;DHT22;18929;48.008;10.882;2022-08-11T11:04:51;22.10;88.80
32476;DHT22;18929;48.008;10.882;2022-08-11T11:07:34;21.90;87.60
32476;DHT22;18929;48.008;10.882;2022-08-11T11:10:05;22.00;88.10
32476;DHT22;18929;48.008;10.882;2022-08-11T11:12:38;21.60;89.20
32476;DHT22;18929;48.008;10.882;2022-08-11T11:15:24;22.50;89.90
32476;DHT22;18929;48.008;10.882;2022-08-11T11:18:11;22.80;87.00
32476;DHT22;18929;48.008;10.882;2022-08-11T11:20:42;22.40;87.70
32476;DHT22;18929;48.008;10.882;2022-08-11T11:23:15;22.80;86.60
32476;DHT22;18929;48.008;10.882;2022-08-11T11:31:48;22.90;84.80
32476;DHT22;18929;48.008;10.882;2022-08-11T11:34:26;22.50;86.30
32476;DHT22;18929;48.008;10.882;2022-08-11T11:36:56;22.50;86.80
32476;DHT22;18929;48.008;10.882;2022-08-11T11:39:26;23.30;84.90
32476;DHT22;18929;48.008;10.882;2022-08-11T11:41:55;23.50;83.80
32476;DHT22;18929;48.008;10.882;2022-08-11T11:44:24;23.00;84.90
32476;DHT22;18929;48.008;10.882;2022-08-11T11:46:52;22.80;86.50
32476;DHT22;18929;48.008;10.882;2022-08-11T11:49:23;22.30;87.00
32476;DHT22;18929;48.008;10.882;2022-08-11T11:51:51;23.00;85.80
32476;DHT22;18929;48.008;10.882;2022-08-11T11:54:21;23.50;83.10
32476;DHT22;18929;48.008;10.882;2022-08-11T11:56:51;23.50;83.10
32476;DHT22;18929;48.008;10.882;2022-08-11T11:59:19;23.40;83.50
32476;DHT22;18929;48.008;10.882;2022-08-11T12:02:05;23.50;82.20
32476;DHT22;18929;48.008;10.882;2022-08-11T12:04:33;23.20;83.80
32476;DHT22;18929;48.008;10.882;2022-08-11T12:07:01;22.60;86.00
32476;DHT22;18929;48.008;10.882;2022-08-11T12:09:43;23.40;81.90
32476;DHT22;18929;48.008;10.882;2022-08-11T12:12:13;23.70;82.20
32476;DHT22;18929;48.008;10.882;2022-08-11T12:14:58;23.80;81.90
32476;DHT22;18929;48.008;10.882;2022-08-11T12:17:25;23.60;83.00
32476;DHT22;18929;48.008;10.882;2022-08-11T12:19:52;23.80;82.60
32476;DHT22;18929;48.008;10.882;2022-08-11T12:22:20;24.50;78.80
32476;DHT22;18929;48.008;10.882;2022-08-11T12:25:05;24.20;78.80
32476;DHT22;18929;48.008;10.882;2022-08-11T12:27:53;24.40;77.50
32476;DHT22;18929;48.008;10.882;2022-08-11T12:30:21;24.00;77.00
32476;DHT22;18929;48.008;10.882;2022-08-11T12:32:49;24.40;79.80
32476;DHT22;18929;48.008;10.882;2022-08-11T12:35:17;24.50;79.30
32476;DHT22;18929;48.008;10.882;2022-08-11T12:37:47;24.10;78.70
32476;DHT22;18929;48.008;10.882;2022-08-11T12:40:20;24.30;78.80
32476;DHT22;18929;48.008;10.882;2022-08-11T12:43:12;24.60;78.70
32476;DHT22;18929;48.008;10.882;2022-08-11T12:45:59;24.80;77.30
32476;DHT22;18929;48.008;10.882;2022-08-11T12:48:29;24.70;75.70
32476;DHT22;18929;48.008;10.882;2022-08-11T12:54:44;25.00;74.00
32476;DHT22;18929;48.008;10.882;2022-08-11T12:57:16;24.70;75.40
32476;DHT22;18929;48.008;10.882;2022-08-11T13:00:04;24.80;75.00
32476;DHT22;18929;48.008;10.882;2022-08-11T13:02:50;24.40;74.40
32476;DHT22;18929;48.008;10.882;2022-08-11T13:05:35;24.80;75.40
32476;DHT22;18929;48.008;10.882;2022-08-11T13:08:03;25.10;77.20
32476;DHT22;18929;48.008;10.882;2022-08-11T13:10:32;24.90;77.50
32476;DHT22;18929;48.008;10.882;2022-08-11T13:13:18;25.20;75.40
32476;DHT22;18929;48.008;10.882;2022-08-11T13:15:47;25.10;75.50
32476;DHT22;18929;48.008;10.882;2022-08-11T13:18:15;25.30;75.80
32476;DHT22;18929;48.008;10.882;2022-08-11T13:20:44;25.20;76.20
32476;DHT22;18929;48.008;10.882;2022-08-11T13:23:15;25.10;74.40
32476;DHT22;18929;48.008;10.882;2022-08-11T13:25:57;25.10;74.40
32476;DHT22;18929;48.008;10.882;2022-08-11T13:28:25;25.30;74.50
32476;DHT22;18929;48.008;10.882;2022-08-11T13:30:54;25.50;73.00
32476;DHT22;18929;48.008;10.882;2022-08-11T13:33:41;25.50;73.60
32476;DHT22;18929;48.008;10.882;2022-08-11T13:36:11;25.20;73.00
32476;DHT22;18929;48.008;10.882;2022-08-11T13:38:41;25.00;72.90
32476;DHT22;18929;48.008;10.882;2022-08-11T13:41:09;25.00;72.80
32476;DHT22;18929;48.008;10.882;2022-08-11T13:43:51;25.30;72.00
32476;DHT22;18929;48.008;10.882;2022-08-11T13:46:21;25.60;73.00
32476;DHT22;18929;48.008;10.882;2022-08-11T13:48:50;25.50;73.10
32476;DHT22;18929;48.008;10.882;2022-08-11T13:51:19;25.50;72.80
32476;DHT22;18929;48.008;10.882;2022-08-11T13:54:01;25.30;75.80
32476;DHT22;18929;48.008;10.882;2022-08-11T13:56:30;25.70;73.30
32476;DHT22;18929;48.008;10.882;2022-08-11T13:58:58;25.80;72.00
32476;DHT22;18929;48.008;10.882;2022-08-11T14:01:30;25.80;72.00
32476;DHT22;18929;48.008;10.882;2022-08-11T14:04:04;26.00;72.20
32476;DHT22;18929;48.008;10.882;2022-08-11T14:06:32;25.90;70.60
32476;DHT22;18929;48.008;10.882;2022-08-11T14:09:03;25.90;70.30
32476;DHT22;18929;48.008;10.882;2022-08-11T14:11:33;26.40;69.50
32476;DHT22;18929;48.008;10.882;2022-08-11T14:14:22;25.80;71.20
32476;DHT22;18929;48.008;10.882;2022-08-11T14:16:53;25.90;71.80
32476;DHT22;18929;48.008;10.882;2022-08-11T14:19:23;26.00;74.30
32476;DHT22;18929;48.008;10.882;2022-08-11T14:21:53;26.00;71.70
32476;DHT22;18929;48.008;10.882;2022-08-11T14:24:36;25.90;73.10
32476;DHT22;18929;48.008;10.882;2022-08-11T14:27:05;26.20;69.40
32476;DHT22;18929;48.008;10.882;2022-08-11T14:29:33;26.30;70.60
32476;DHT22;18929;48.008;10.882;2022-08-11T14:32:06;26.40;71.20
32476;DHT22;18929;48.008;10.882;2022-08-11T14:34:35;26.30;70.90
32476;DHT22;18929;48.008;10.882;2022-08-11T14:37:05;26.10;72.30
32476;DHT22;18929;48.008;10.882;2022-08-11T15:04:52;26.70;66.60
32476;DHT22;18929;48.008;10.882;2022-08-11T15:07:21;26.70;67.60
32476;DHT22;18929;48.008;10.882;2022-08-11T15:09:55;25.90;66.90
32476;DHT22;18929;48.008;10.882;2022-08-11T15:12:23;26.40;68.30
32476;DHT22;18929;48.008;10.882;2022-08-11T15:14:53;26.50;67.60
32476;DHT22;18929;48.008;10.882;2022-08-11T15:17:39;26.50;68.30
32476;DHT22;18929;48.008;10.882;2022-08-11T15:20:11;26.60;67.80
32476;DHT22;18929;48.008;10.882;2022-08-11T15:23:05;26.80;67.40
32476;DHT22;18929;48.008;10.882;2022-08-11T15:25:54;26.40;64.50
32476;DHT22;18929;48.008;10.882;2022-08-11T15:28:22;27.20;65.20
32476;DHT22;18929;48.008;10.882;2022-08-11T15:31:24;26.90;63.60
32476;DHT22;18929;48.008;10.882;2022-08-11T15:34:11;26.70;64.40
32476;DHT22;18929;48.008;10.882;2022-08-11T15:37:05;27.40;66.80
32476;DHT22;18929;48.008;10.882;2022-08-11T15:39:54;27.90;67.90
32476;DHT22;18929;48.008;10.882;2022-08-11T15:42:44;28.50;63.10
32476;DHT22;18929;48.008;10.882;2022-08-11T15:45:31;27.30;69.00
32476;DHT22;18929;48.008;10.882;2022-08-11T15:48:20;27.80;62.20
32476;DHT22;18929;48.008;10.882;2022-08-11T15:50:52;27.50;62.60
32476;DHT22;18929;48.008;10.882;2022-08-11T15:53:27;28.70;61.90
32476;DHT22;18929;48.008;10.882;2022-08-11T15:55:57;27.80;61.90
32476;DHT22;18929;48.008;10.882;2022-08-11T15:58:29;27.70;59.40
32476;DHT22;18929;48.008;10.882;2022-08-11T16:01:18;28.80;61.80
32476;DHT22;18929;48.008;10.882;2022-08-11T16:04:06;27.30;65.10
32476;DHT22;18929;48.008;10.882;2022-08-11T16:06:49;27.30;60.20
32476;DHT22;18929;48.008;10.882;2022-08-11T16:09:22;28.20;63.20
32476;DHT22;18929;48.008;10.882;2022-08-11T16:11:51;26.90;63.20
32476;DHT22;18929;48.008;10.882;2022-08-11T16:14:22;28.60;61.20
32476;DHT22;18929;48.008;10.882;2022-08-11T16:17:10;28.60;60.00
32476;DHT22;18929;48.008;10.882;2022-08-11T16:19:40;27.80;59.50
32476;DHT22;18929;48.008;10.882;2022-08-11T16:22:10;28.50;63.50
32476;DHT22;18929;48.008;10.882;2022-08-11T16:24:41;27.90;59.20
32476;DHT22;18929;48.008;10.882;2022-08-11T16:27:34;29.20;59.10
32476;DHT22;18929;48.008;10.882;2022-08-11T16:30:03;29.70;61.90
32476;DHT22;18929;48.008;10.882;2022-08-11T16:32:51;29.70;57.60
32476;DHT22;18929;48.008;10.882;2022-08-11T20:40:17;27.40;60.00
32476;DHT22;18929;48.008;10.882;2022-08-11T20:43:03;27.30;59.40
32476;DHT22;18929;48.008;10.882;2022-08-11T20:45:48;27.00;60.90
32476;DHT22;18929;48.008;10.882;2022-08-11T20:48:37;27.20;60.60
32476;DHT22;18929;48.008;10.882;2022-08-11T20:51:22;27.10;60.70
32476;DHT22;18929;48.008;10.882;2022-08-11T20:54:07;27.10;60.00
32476;DHT22;18929;48.008;10.882;2022-08-11T20:56:54;27.20;60.40
32476;DHT22;18929;48.008;10.882;2022-08-11T20:59:39;27.20;60.40
32476;DHT22;18929;48.008;10.882;2022-08-11T21:02:25;27.20;60.60
32476;DHT22;18929;48.008;10.882;2022-08-11T21:05:11;27.00;60.80
32476;DHT22;18929;48.008;10.882;2022-08-11T21:07:56;26.80;60.20
32476;DHT22;18929;48.008;10.882;2022-08-11T21:10:41;26.90;61.10
32476;DHT22;18929;48.008;10.882;2022-08-11T21:13:32;26.80;61.10
32476;DHT22;18929;48.008;10.882;2022-08-11T21:16:21;26.80;61.20
32476;DHT22;18929;48.008;10.882;2022-08-11T21:19:21;26.70;61.30
32476;DHT22;18929;48.008;10.882;2022-08-11T21:22:07;26.70;61.40
32476;DHT22;18929;48.008;10.882;2022-08-11T21:24:54;26.60;61.50
32476;DHT22;18929;48.008;10.882;2022-08-11T21:27:40;26.60;61.60
32476;DHT22;18929;48.008;10.882;2022-08-11T21:30:29;26.50;61.40
32476;DHT22;18929;48.008;10.882;2022-08-11T21:33:13;26.50;61.60
32476;DHT22;18929;48.008;10.882;2022-08-11T21:35:58;26.40;61.70
32476;DHT22;18929;48.008;10.882;2022-08-11T21:38:43;26.30;61.80
32476;DHT22;18929;48.008;10.882;2022-08-11T21:41:29;26.30;61.90
32476;DHT22;18929;48.008;10.882;2022-08-11T21:44:15;26.20;62.00
32476;DHT22;18929;48.008;10.882;2022-08-11T21:47:03;26.20;62.00
32476;DHT22;18929;48.008;10.882;2022-08-11T21:49:48;26.10;62.00
32476;DHT22;18929;48.008;10.882;2022-08-11T21:52:34;26.00;60.80
32476;DHT22;18929;48.008;10.882;2022-08-11T21:55:20;26.00;62.30
32476;DHT22;18929;48.008;10.882;2022-08-11T21:58:05;25.80;62.30
32476;DHT22;18929;48.008;10.882;2022-08-11T22:00:51;25.80;62.80
32476;DHT22;18929;48.008;10.882;2022-08-11T22:03:37;25.70;62.70
32476;DHT22;18929;48.008;10.882;2022-08-11T22:06:23;24.30;64.60
32476;DHT22;18929;48.008;10.882;2022-08-11T22:09:08;25.20;64.10
32476;DHT22;18929;48.008;10.882;2022-08-11T22:11:53;25.50;63.30
32476;DHT22;18929;48.008;10.882;2022-08-11T22:14:37;25.30;62.30
32476;DHT22;18929;48.008;10.882;2022-08-11T22:17:22;25.10;64.00
32476;DHT22;18929;48.008;10.882;2022-08-11T22:20:10;25.40;63.30